createdAt,value
2018-07-13T00:00:02.902Z,5.80
2018-07-13T00:02:31.853Z,7.47
2018-07-13T00:05:00.736Z,7.00
2018-07-13T00:07:29.686Z,6.70
2018-07-13T00:09:58.591Z,6.93
2018-07-13T00:12:27.523Z,7.23
2018-07-13T00:15:03.117Z,7.23
2018-07-13T00:17:32.031Z,6.90
2018-07-13T00:20:00.950Z,6.80
2018-07-13T00:22:29.953Z,7.10
2018-07-13T00:24:58.871Z,6.90
2018-07-13T00:27:27.794Z,7.87
2018-07-13T00:29:56.729Z,6.90
2018-07-13T00:32:25.656Z,6.90
2018-07-13T00:34:54.603Z,7.33
2018-07-13T00:37:23.570Z,8.73
2018-07-13T00:39:52.509Z,7.60
2018-07-13T00:42:21.431Z,7.53
2018-07-13T00:44:50.392Z,7.57
2018-07-13T00:47:19.299Z,7.50
2018-07-13T00:49:48.198Z,6.73
2018-07-13T00:52:17.171Z,7.07
2018-07-13T00:54:46.064Z,8.73
2018-07-13T00:57:14.965Z,8.07
2018-07-13T00:59:43.928Z,7.13
2018-07-13T01:02:12.810Z,6.70
2018-07-13T01:04:41.672Z,7.23
2018-07-13T01:07:10.585Z,7.13
2018-07-13T01:09:39.559Z,6.73
2018-07-13T01:12:08.513Z,7.50
2018-07-13T01:14:37.496Z,7.13
2018-07-13T01:17:06.427Z,7.00
2018-07-13T01:19:35.392Z,6.73
2018-07-13T01:22:04.427Z,7.40
2018-07-13T01:24:33.369Z,7.00
2018-07-13T01:27:02.225Z,7.10
2018-07-13T01:29:31.143Z,7.10
2018-07-13T01:32:00.068Z,6.70
2018-07-13T01:34:29.021Z,6.87
2018-07-13T01:36:58.010Z,7.07
2018-07-13T01:39:26.878Z,7.13
2018-07-13T01:41:55.837Z,6.57
2018-07-13T01:44:24.758Z,6.93
2018-07-13T01:46:53.706Z,7.10
2018-07-13T01:49:22.682Z,6.47
2018-07-13T01:51:51.608Z,6.53
2018-07-13T01:54:20.561Z,6.53
2018-07-13T01:56:49.428Z,6.87
2018-07-13T01:59:18.315Z,6.83
2018-07-13T02:01:47.241Z,7.47
2018-07-13T02:04:16.197Z,7.00
2018-07-13T02:06:45.176Z,7.00
2018-07-13T02:09:14.136Z,6.97
2018-07-13T02:11:43.034Z,7.00
2018-07-13T02:14:11.966Z,7.00
2018-07-13T02:16:40.933Z,6.90
2018-07-13T02:19:09.842Z,6.07
2018-07-13T02:21:38.775Z,6.30
2018-07-13T02:24:07.708Z,6.83
2018-07-13T02:26:36.574Z,6.73
2018-07-13T02:29:05.582Z,7.20
2018-07-13T02:31:34.508Z,6.70
2018-07-13T02:34:03.434Z,8.37
2018-07-13T02:36:32.363Z,7.30
2018-07-13T02:39:01.469Z,7.47
2018-07-13T02:41:30.266Z,6.60
2018-07-13T02:43:59.222Z,6.80
2018-07-13T02:46:28.235Z,6.90
2018-07-13T02:48:57.151Z,7.03
2018-07-13T02:51:26.145Z,6.53
2018-07-13T02:53:55.042Z,6.57
2018-07-13T02:56:23.942Z,6.70
2018-07-13T02:58:52.923Z,6.90
2018-07-13T03:01:21.838Z,6.73
2018-07-13T03:03:50.735Z,6.70
2018-07-13T03:06:19.671Z,7.37
2018-07-13T03:08:48.725Z,6.83
2018-07-13T03:11:17.749Z,7.33
2018-07-13T03:13:46.717Z,6.83
2018-07-13T03:16:15.660Z,7.13
2018-07-13T03:18:44.613Z,6.33
2018-07-13T03:21:13.526Z,6.60
2018-07-13T03:23:42.405Z,7.00
2018-07-13T03:26:11.381Z,7.67
2018-07-13T03:28:40.332Z,7.67
2018-07-13T03:31:09.292Z,7.90
2018-07-13T03:33:38.577Z,8.57
2018-07-13T03:36:08.667Z,7.17
2018-07-13T03:38:37.636Z,6.83
2018-07-13T03:41:06.715Z,12.63
2018-07-13T03:43:35.592Z,198.83
2018-07-13T03:46:04.560Z,129.43
2018-07-13T03:48:33.509Z,51.93
2018-07-13T03:51:02.531Z,64.50
2018-07-13T03:53:31.428Z,79.27
2018-07-13T03:56:00.409Z,82.43
2018-07-13T03:58:29.470Z,68.90
2018-07-13T04:00:58.427Z,26.83
2018-07-13T04:03:27.444Z,16.73
2018-07-13T04:05:56.529Z,38.57
2018-07-13T04:08:25.916Z,20.83
2018-07-13T04:10:54.808Z,8.43
2018-07-13T04:13:23.779Z,8.63
2018-07-13T04:15:52.742Z,7.43
2018-07-13T04:18:23.278Z,7.37
2018-07-13T04:20:52.992Z,6.30
2018-07-13T04:23:23.286Z,8.27
2018-07-13T04:25:52.728Z,8.00
2018-07-13T04:28:22.340Z,7.10
2018-07-13T04:30:51.391Z,7.53
2018-07-13T04:33:20.397Z,7.43
2018-07-13T04:35:49.516Z,7.50
2018-07-13T04:38:18.587Z,7.43
2018-07-13T04:40:47.529Z,7.60
2018-07-13T04:43:16.516Z,8.70
2018-07-13T04:45:45.607Z,7.83
2018-07-13T04:48:14.674Z,7.77
2018-07-13T04:50:43.755Z,7.27
2018-07-13T04:53:12.758Z,8.40
2018-07-13T04:55:41.929Z,8.10
2018-07-13T04:58:11.570Z,8.10
2018-07-13T05:00:40.671Z,8.33
2018-07-13T05:03:10.035Z,11.97
2018-07-13T05:05:39.107Z,11.90
2018-07-13T05:08:08.145Z,9.50
2018-07-13T05:10:37.249Z,12.83
2018-07-13T05:13:06.251Z,11.47
2018-07-13T05:15:35.180Z,8.93
2018-07-13T05:18:04.243Z,10.80
2018-07-13T05:20:33.332Z,9.57
2018-07-13T05:23:02.803Z,11.27
2018-07-13T05:25:31.842Z,8.47
2018-07-13T05:28:00.961Z,9.27
2018-07-13T05:30:30.200Z,12.23
2018-07-13T05:32:59.193Z,9.80
2018-07-13T05:35:28.261Z,13.03
2018-07-13T05:37:57.345Z,8.83
2018-07-13T05:40:26.341Z,8.90
2018-07-13T05:42:55.381Z,9.10
2018-07-13T05:45:24.376Z,8.73
2018-07-13T05:47:53.388Z,8.87
2018-07-13T05:50:22.422Z,9.07
2018-07-13T05:52:51.746Z,9.27
2018-07-13T05:55:20.809Z,9.17
2018-07-13T05:57:49.872Z,9.80
2018-07-13T06:00:18.788Z,8.90
2018-07-13T06:02:47.789Z,14.20
2018-07-13T06:05:16.881Z,9.97
2018-07-13T06:07:45.898Z,11.07
2018-07-13T06:10:14.869Z,11.20
2018-07-13T06:12:44.468Z,12.83
2018-07-13T06:15:13.357Z,8.03
2018-07-13T06:17:42.350Z,10.13
2018-07-13T06:20:11.987Z,7.90
2018-07-13T06:22:41.046Z,7.43
2018-07-13T06:25:10.893Z,10.13
2018-07-13T06:27:40.280Z,8.77
2018-07-13T06:30:09.363Z,7.13
2018-07-13T06:32:38.346Z,6.43
2018-07-13T06:35:07.609Z,5.53
2018-07-13T06:37:36.681Z,5.13
2018-07-13T06:40:05.872Z,5.40
2018-07-13T06:42:34.856Z,5.10
2018-07-13T06:45:04.104Z,5.17
2018-07-13T06:47:33.127Z,5.10
2018-07-13T06:50:02.225Z,5.33
2018-07-13T06:52:31.451Z,4.80
2018-07-13T06:55:00.535Z,4.70
2018-07-13T06:57:40.542Z,6.77
2018-07-13T07:00:55.474Z,5.93
2018-07-13T07:03:25.623Z,4.90
2018-07-13T07:05:57.914Z,6.37
2018-07-13T07:08:28.295Z,5.10
2018-07-13T07:10:58.519Z,4.57
2018-07-13T07:13:30.662Z,5.40
2018-07-13T07:16:00.264Z,5.20
2018-07-13T07:18:29.962Z,5.07
2018-07-13T07:20:59.666Z,5.13
2018-07-13T07:23:29.831Z,4.80
2018-07-13T07:26:00.527Z,5.80
2018-07-13T07:28:30.280Z,5.33
2018-07-13T07:31:00.409Z,5.70
2018-07-13T07:33:29.814Z,4.87
2018-07-13T07:35:59.267Z,4.93
2018-07-13T07:38:28.500Z,5.33
2018-07-13T07:40:57.676Z,5.00
2018-07-13T07:43:27.309Z,5.93
2018-07-13T07:45:56.447Z,4.80
2018-07-13T07:48:26.273Z,5.37
2018-07-13T07:50:55.349Z,5.50
2018-07-13T07:53:24.476Z,5.00
2018-07-13T07:55:53.888Z,5.53
2018-07-13T07:58:23.036Z,5.13
2018-07-13T08:00:52.233Z,4.70
2018-07-13T08:03:21.370Z,5.13
2018-07-13T08:05:50.532Z,5.97
2018-07-13T08:08:19.658Z,5.23
2018-07-13T08:10:48.849Z,5.43
2018-07-13T08:13:18.129Z,5.00
2018-07-13T08:15:47.442Z,5.50
2018-07-13T08:18:16.617Z,4.80
2018-07-13T08:20:48.820Z,5.03
2018-07-13T08:23:18.938Z,4.90
2018-07-13T08:25:49.941Z,5.27
2018-07-13T08:28:19.983Z,10.03
2018-07-13T08:30:54.482Z,5.30
2018-07-13T08:33:23.568Z,5.70
2018-07-13T08:35:53.243Z,5.43
2018-07-13T08:38:22.542Z,5.20
2018-07-13T08:40:55.696Z,4.77
2018-07-13T08:43:24.910Z,4.97
2018-07-13T08:45:54.731Z,5.30
2018-07-13T08:48:24.016Z,4.60
2018-07-13T08:50:53.906Z,4.83
2018-07-13T08:53:23.163Z,4.40
2018-07-13T08:55:52.522Z,5.50
2018-07-13T08:58:21.752Z,4.87
2018-07-13T09:00:51.072Z,6.80
2018-07-13T09:03:21.056Z,5.30
2018-07-13T09:05:50.987Z,5.17
2018-07-13T09:08:20.038Z,5.13
2018-07-13T09:10:49.297Z,5.27
2018-07-13T09:13:18.443Z,5.90
2018-07-13T09:15:47.672Z,8.90
2018-07-13T09:18:16.698Z,6.50
2018-07-13T09:20:45.760Z,4.53
2018-07-13T09:23:14.703Z,5.50
2018-07-13T09:25:43.813Z,10.13
2018-07-13T09:28:12.796Z,7.90
2018-07-13T09:30:42.025Z,5.93
2018-07-13T09:33:10.952Z,5.00
2018-07-13T09:35:39.971Z,6.57
2018-07-13T09:38:09.067Z,5.43
2018-07-13T09:40:38.024Z,5.00
2018-07-13T09:43:07.214Z,5.43
2018-07-13T09:45:36.289Z,4.57
2018-07-13T09:48:05.343Z,4.47
2018-07-13T09:50:34.300Z,5.50
2018-07-13T09:53:03.314Z,5.47
2018-07-13T09:55:32.332Z,5.87
2018-07-13T09:58:01.194Z,4.97
2018-07-13T10:01:34.941Z,5.17
2018-07-13T10:04:03.874Z,4.60
2018-07-13T10:06:32.895Z,4.93
2018-07-13T10:09:01.895Z,4.87
2018-07-13T10:11:30.986Z,5.07
2018-07-13T10:14:00.009Z,4.33
2018-07-13T10:16:29.165Z,5.60
2018-07-13T10:18:58.220Z,4.80
2018-07-13T10:21:28.103Z,4.70
2018-07-13T10:23:58.435Z,6.33
2018-07-13T10:26:35.813Z,5.27
2018-07-13T10:29:20.259Z,5.27
2018-07-13T10:31:50.210Z,5.63
2018-07-13T10:34:20.322Z,6.37
2018-07-13T10:37:00.178Z,5.97
2018-07-13T10:39:29.270Z,6.07
2018-07-13T10:41:58.258Z,5.43
2018-07-13T10:44:28.217Z,5.60
2018-07-13T10:46:57.393Z,5.83
2018-07-13T10:49:26.391Z,5.57
2018-07-13T10:51:55.461Z,6.27
2018-07-13T10:54:24.564Z,6.03
2018-07-13T10:56:53.679Z,6.17
2018-07-13T10:59:22.855Z,5.73
2018-07-13T11:01:51.814Z,5.83
2018-07-13T11:04:20.765Z,5.97
2018-07-13T11:06:49.966Z,5.10
2018-07-13T11:09:18.905Z,5.37
2018-07-13T11:11:47.922Z,5.40
2018-07-13T11:14:17.032Z,5.70
2018-07-13T11:16:45.981Z,5.37
2018-07-13T11:19:15.001Z,6.13
2018-07-13T11:21:44.200Z,5.83
2018-07-13T11:24:13.304Z,5.83
2018-07-13T11:26:42.217Z,6.00
2018-07-13T11:29:11.270Z,6.00
2018-07-13T11:31:40.274Z,5.50
2018-07-13T11:34:09.484Z,6.13
2018-07-13T11:36:38.704Z,5.70
2018-07-13T11:39:08.879Z,5.23
2018-07-13T11:41:37.959Z,5.40
2018-07-13T11:44:07.208Z,5.07
2018-07-13T11:46:36.519Z,5.00
2018-07-13T11:49:06.024Z,4.87
2018-07-13T11:51:35.123Z,6.50
2018-07-13T11:54:04.101Z,5.20
2018-07-13T11:56:34.586Z,8.80
2018-07-13T11:59:03.623Z,5.47
2018-07-13T12:01:32.635Z,5.33
2018-07-13T12:04:02.302Z,7.47
2018-07-13T12:06:32.256Z,5.90
2018-07-13T12:09:01.397Z,5.50
2018-07-13T12:11:30.426Z,4.72
2018-07-13T12:13:59.450Z,6.97
2018-07-13T12:16:28.577Z,5.07
2018-07-13T12:18:57.639Z,5.43
2018-07-13T12:21:26.699Z,5.33
2018-07-13T12:23:55.718Z,6.27
2018-07-13T12:26:24.702Z,5.30
2018-07-13T12:28:53.779Z,5.87
2018-07-13T12:31:22.841Z,6.00
2018-07-13T12:33:51.860Z,5.60
2018-07-13T12:36:20.984Z,5.57
2018-07-13T12:38:50.009Z,5.70
2018-07-13T12:41:19.053Z,5.90
2018-07-13T12:43:48.765Z,5.80
2018-07-13T12:46:17.761Z,6.00
2018-07-13T12:48:46.744Z,5.67
2018-07-13T12:51:15.680Z,6.43
2018-07-13T12:53:44.623Z,6.13
2018-07-13T12:56:13.655Z,5.73
2018-07-13T12:58:42.789Z,5.60
2018-07-13T13:01:11.806Z,5.60
2018-07-13T13:03:40.908Z,6.53
2018-07-13T13:06:09.969Z,6.40
2018-07-13T13:08:38.966Z,7.90
2018-07-13T13:11:07.923Z,9.50
2018-07-13T13:13:36.989Z,10.90
2018-07-13T13:16:06.294Z,13.27
2018-07-13T13:18:35.601Z,13.13
2018-07-13T13:21:04.858Z,13.10
2018-07-13T13:23:33.987Z,11.10
2018-07-13T13:26:03.349Z,13.83
2018-07-13T13:28:32.423Z,11.93
2018-07-13T13:31:02.102Z,28.27
2018-07-13T13:33:31.226Z,31.23
2018-07-13T13:36:00.684Z,26.23
2018-07-13T13:38:29.680Z,28.17
2018-07-13T13:40:59.222Z,35.80
2018-07-13T13:43:29.053Z,27.80
2018-07-13T13:45:58.324Z,16.63
2018-07-13T13:48:27.605Z,12.53
2018-07-13T13:50:56.645Z,15.03
2018-07-13T13:53:25.816Z,7.67
2018-07-13T13:55:54.958Z,5.37
2018-07-13T13:58:24.858Z,5.83
2018-07-13T14:00:53.797Z,5.93
2018-07-13T14:03:22.843Z,6.67
2018-07-13T14:05:51.913Z,14.10
2018-07-13T14:08:21.030Z,12.83
2018-07-13T14:10:50.079Z,8.20
2018-07-13T14:13:19.063Z,12.07
2018-07-13T14:15:48.400Z,9.57
2018-07-13T14:18:17.494Z,12.80
2018-07-13T14:20:46.552Z,10.20
2018-07-13T14:23:15.532Z,11.63
2018-07-13T14:25:44.626Z,7.97
2018-07-13T14:28:13.690Z,13.07
2018-07-13T14:30:42.625Z,12.47
2018-07-13T14:33:11.589Z,13.47
2018-07-13T14:35:40.520Z,7.83
2018-07-13T14:38:09.861Z,7.60
2018-07-13T14:40:38.964Z,7.53
2018-07-13T14:43:08.197Z,7.57
2018-07-13T14:45:37.149Z,8.93
2018-07-13T14:48:06.191Z,8.60
2018-07-13T14:50:35.105Z,8.20
2018-07-13T14:53:04.116Z,8.43
2018-07-13T14:55:33.533Z,8.20
2018-07-13T14:58:02.641Z,9.23
2018-07-13T15:00:31.818Z,8.80
2018-07-13T15:03:00.904Z,9.00
2018-07-13T15:05:29.980Z,9.73
2018-07-13T15:07:59.033Z,10.63
2018-07-13T15:10:27.971Z,8.10
2018-07-13T15:12:57.036Z,7.70
2018-07-13T15:15:25.979Z,7.37
2018-07-13T15:17:55.042Z,7.20
2018-07-13T15:20:24.020Z,8.53
2018-07-13T15:22:52.968Z,7.37
2018-07-13T15:25:22.030Z,9.27
2018-07-13T15:27:51.162Z,7.13
2018-07-13T15:30:20.086Z,9.67
2018-07-13T15:32:48.998Z,6.73
2018-07-13T15:35:18.058Z,6.80
2018-07-13T15:37:47.018Z,6.33
2018-07-13T15:40:16.015Z,5.70
2018-07-13T15:42:44.991Z,6.03
2018-07-13T15:45:13.948Z,7.10
2018-07-13T15:47:42.830Z,6.20
2018-07-13T15:50:12.537Z,5.93
2018-07-13T15:52:41.419Z,6.30
2018-07-13T15:55:10.317Z,6.30
2018-07-13T15:57:39.261Z,6.50
2018-07-13T16:00:08.360Z,6.10
2018-07-13T16:02:37.269Z,5.90
2018-07-13T16:05:06.419Z,5.93
2018-07-13T16:07:35.817Z,6.27
2018-07-13T16:10:04.845Z,6.00
2018-07-13T16:12:33.792Z,6.37
2018-07-13T16:15:02.762Z,5.70
2018-07-13T16:17:31.744Z,5.97
2018-07-13T16:20:00.649Z,6.20
2018-07-13T16:22:29.567Z,6.77
2018-07-13T16:24:58.606Z,6.80
2018-07-13T16:27:27.636Z,6.03
2018-07-13T16:29:56.596Z,6.30
2018-07-13T16:32:25.729Z,7.00
2018-07-13T16:34:54.791Z,6.57
2018-07-13T16:37:23.809Z,6.73
2018-07-13T16:39:52.735Z,7.73
2018-07-13T16:42:21.669Z,7.20
2018-07-13T16:44:51.117Z,5.60
2018-07-13T16:47:20.015Z,6.30
2018-07-13T16:49:48.955Z,6.17
2018-07-13T16:52:17.926Z,6.63
2018-07-13T16:54:46.831Z,6.20
2018-07-13T16:57:15.731Z,5.70
2018-07-13T16:59:44.667Z,6.40
2018-07-13T17:02:13.534Z,5.73
2018-07-13T17:04:42.609Z,8.13
2018-07-13T17:07:11.652Z,5.33
2018-07-13T17:09:40.551Z,5.27
2018-07-13T17:12:09.539Z,4.80
2018-07-13T17:14:38.497Z,4.70
2018-07-13T17:17:07.467Z,4.90
2018-07-13T17:19:36.399Z,5.73
2018-07-13T17:22:05.472Z,5.20
2018-07-13T17:24:34.493Z,5.17
2018-07-13T17:27:03.459Z,5.40
2018-07-13T17:29:32.473Z,6.20
2018-07-13T17:32:01.462Z,5.83
2018-07-13T17:34:30.444Z,5.10
2018-07-13T17:36:59.364Z,5.63
2018-07-13T17:39:28.322Z,4.70
2018-07-13T17:41:58.156Z,4.30
2018-07-13T17:44:27.059Z,5.10
2018-07-13T17:46:55.948Z,4.43
2018-07-13T17:49:24.970Z,5.23
2018-07-13T17:51:53.814Z,5.23
2018-07-13T17:54:22.765Z,5.23
2018-07-13T17:56:51.771Z,5.43
2018-07-13T17:59:20.755Z,5.30
2018-07-13T18:01:49.740Z,5.53
2018-07-13T18:04:18.766Z,6.00
2018-07-13T18:06:47.757Z,6.37
2018-07-13T18:09:16.781Z,5.30
2018-07-13T18:11:45.774Z,6.50
2018-07-13T18:14:14.757Z,6.50
2018-07-13T18:16:43.722Z,6.30
2018-07-13T18:19:12.694Z,6.27
2018-07-13T18:21:41.765Z,6.17
2018-07-13T18:24:10.729Z,6.20
2018-07-13T18:26:39.665Z,6.43
2018-07-13T18:29:08.571Z,6.60
2018-07-13T18:31:37.487Z,7.33
2018-07-13T18:34:06.458Z,6.47
2018-07-13T18:36:35.318Z,7.27
2018-07-13T18:39:04.968Z,6.97
2018-07-13T18:41:34.012Z,7.47
2018-07-13T18:44:02.954Z,6.50
2018-07-13T18:46:31.922Z,7.00
2018-07-13T18:49:00.942Z,7.80
2018-07-13T18:51:29.818Z,7.07
2018-07-13T18:53:58.696Z,7.87
2018-07-13T18:56:27.633Z,7.53
2018-07-13T18:58:56.557Z,7.63
2018-07-13T19:01:25.562Z,7.60
2018-07-13T19:03:54.472Z,9.10
2018-07-13T19:06:23.416Z,8.53
2018-07-13T19:08:52.390Z,8.37
2018-07-13T19:11:21.405Z,8.50
2018-07-13T19:13:50.561Z,8.70
2018-07-13T19:16:19.498Z,9.30
2018-07-13T19:18:48.619Z,9.57
2018-07-13T19:21:17.584Z,8.93
2018-07-13T19:23:46.461Z,9.50
2018-07-13T19:26:15.404Z,10.00
2018-07-13T19:28:44.289Z,9.60
2018-07-13T19:31:13.321Z,10.00
2018-07-13T19:33:42.288Z,9.70
2018-07-13T19:36:11.390Z,10.57
2018-07-13T19:38:40.261Z,10.00
2018-07-13T19:41:09.225Z,10.63
2018-07-13T19:43:38.092Z,10.13
2018-07-13T19:46:07.383Z,9.93
2018-07-13T19:48:36.430Z,10.70
2018-07-13T19:51:05.400Z,10.80
2018-07-13T19:53:34.255Z,9.73
2018-07-13T19:56:03.190Z,10.30
2018-07-13T19:58:32.110Z,10.20
2018-07-13T20:01:00.993Z,9.97
2018-07-13T20:03:29.994Z,9.93
2018-07-13T20:05:58.924Z,10.83
2018-07-13T20:08:27.805Z,9.90
2018-07-13T20:10:56.760Z,9.87
2018-07-13T20:13:25.679Z,9.60
2018-07-13T20:15:54.634Z,10.07
2018-07-13T20:18:23.609Z,9.63
2018-07-13T20:20:52.664Z,9.73
2018-07-13T20:23:21.654Z,10.27
2018-07-13T20:25:50.646Z,10.33
2018-07-13T20:28:19.582Z,9.80
2018-07-13T20:30:48.513Z,10.30
2018-07-13T20:33:17.496Z,10.50
2018-07-13T20:35:46.384Z,10.70
2018-07-13T20:38:15.733Z,10.60
2018-07-13T20:40:44.765Z,10.23
2018-07-13T20:43:13.718Z,10.27
2018-07-13T20:45:42.662Z,10.53
2018-07-13T20:48:11.596Z,10.87
2018-07-13T20:50:40.507Z,10.73
2018-07-13T20:53:09.630Z,10.20
2018-07-13T20:55:38.729Z,10.33
2018-07-13T20:58:08.184Z,11.00
2018-07-13T21:00:37.304Z,13.20
2018-07-13T21:03:06.264Z,10.47
2018-07-13T21:05:35.280Z,10.40
2018-07-13T21:08:04.254Z,10.53
2018-07-13T21:10:33.311Z,10.30
2018-07-13T21:13:02.274Z,10.23
2018-07-13T21:15:31.330Z,10.80
2018-07-13T21:18:00.362Z,9.77
2018-07-13T21:20:29.287Z,10.80
2018-07-13T21:22:58.237Z,10.60
2018-07-13T21:25:27.166Z,9.90
2018-07-13T21:27:56.117Z,10.57
2018-07-13T21:30:24.997Z,10.33
2018-07-13T21:32:53.948Z,10.03
2018-07-13T21:35:22.954Z,10.33
2018-07-13T21:37:51.868Z,9.57
2018-07-13T21:40:20.830Z,10.20
2018-07-13T21:42:49.770Z,10.27
2018-07-13T21:45:18.689Z,9.67
2018-07-13T21:47:47.654Z,10.30
2018-07-13T21:50:16.610Z,10.67
2018-07-13T21:52:45.522Z,10.93
2018-07-13T21:55:14.415Z,11.03
2018-07-13T21:57:43.258Z,10.70
2018-07-13T22:00:12.186Z,11.50
2018-07-13T22:02:41.209Z,10.20
2018-07-13T22:05:10.118Z,11.73
2018-07-13T22:07:39.074Z,11.60
2018-07-13T22:10:08.038Z,10.83
2018-07-13T22:12:37.056Z,11.33
2018-07-13T22:15:06.084Z,10.67
2018-07-13T22:17:35.117Z,10.97
2018-07-13T22:20:04.117Z,10.43
2018-07-13T22:22:33.056Z,10.13
2018-07-13T22:25:02.021Z,10.53
2018-07-13T22:27:30.964Z,10.83
2018-07-13T22:29:59.921Z,10.80
2018-07-13T22:32:28.856Z,10.60
2018-07-13T22:34:57.782Z,10.27
2018-07-13T22:37:26.738Z,11.53
2018-07-13T22:39:55.794Z,11.17
2018-07-13T22:42:24.652Z,11.03
2018-07-13T22:44:53.605Z,10.63
2018-07-13T22:47:24.198Z,11.30
2018-07-13T22:49:53.103Z,12.17
2018-07-13T22:52:22.099Z,10.57
2018-07-13T22:54:51.036Z,10.70
2018-07-13T22:57:19.908Z,11.13
2018-07-13T22:59:48.835Z,11.97
2018-07-13T23:02:17.746Z,12.40
2018-07-13T23:04:46.744Z,12.30
2018-07-13T23:07:15.697Z,10.87
2018-07-13T23:09:44.656Z,12.20
2018-07-13T23:12:13.553Z,12.90
2018-07-13T23:14:42.523Z,12.27
2018-07-13T23:17:11.614Z,11.83
2018-07-13T23:19:40.642Z,13.23
2018-07-13T23:22:09.604Z,12.37
2018-07-13T23:24:38.615Z,13.53
2018-07-13T23:27:07.506Z,12.57
2018-07-13T23:29:36.475Z,12.60
2018-07-13T23:32:05.409Z,11.57
2018-07-13T23:34:34.310Z,12.03
2018-07-13T23:37:03.210Z,11.40
2018-07-13T23:39:32.261Z,11.73
2018-07-13T23:42:01.257Z,11.97
2018-07-13T23:44:30.213Z,13.13
2018-07-13T23:46:59.233Z,11.90
2018-07-13T23:49:28.139Z,13.17
2018-07-13T23:51:57.063Z,13.33
2018-07-13T23:54:26.111Z,13.90
2018-07-13T23:56:55.074Z,13.10
2018-07-13T23:59:23.995Z,13.90
